Time;durP1;ratioP1;P1;durP2;ratioP2;P2;SDS_P1;SDS_P2;PMS_P1;PMS_P2;Temp;Humidity;BMP_temperature;BMP_pressure;BME280_temperature;BME280_humidity;BME280_pressure;Samples;Min_cycle;Max_cycle;Signal;HPM_P1;HPM_P2
2021/04/13 00:01:23;;;;;;;34.70;22.52;;;;;;;15.39;50.29;101031.27;1767210;80;21238;-75
2021/04/13 00:04:09;;;;;;;34.10;22.00;;;;;;;15.37;50.40;101038.72;1784285;80;21155;-77
2021/04/13 00:06:50;;;;;;;37.23;22.98;;;;;;;15.34;50.51;101035.52;1760222;80;21188;-77
2021/04/13 00:09:23;;;;;;;36.30;22.87;;;;;;;15.32;50.60;101036.22;1754325;81;21554;-77
2021/04/13 00:11:55;;;;;;;31.27;21.17;;;;;;;15.31;50.71;101043.98;1784175;80;21214;-75
2021/04/13 00:14:26;;;;;;;33.02;20.88;;;;;;;15.28;50.79;101041.63;1751510;80;22366;-76
2021/04/13 00:16:58;;;;;;;28.35;21.02;;;;;;;15.25;50.91;101041.97;1762846;80;21602;-77
2021/04/13 00:19:33;;;;;;;36.45;21.57;;;;;;;15.22;51.07;101050.76;1760822;79;21126;-75
2021/04/13 00:22:00;;;;;;;35.48;22.15;;;;;;;15.22;51.21;101047.22;1755663;80;21609;-77
2021/04/13 00:24:28;;;;;;;35.40;21.48;;;;;;;15.21;51.31;101046.86;1792191;79;21141;-77
2021/04/13 00:26:59;;;;;;;35.85;23.05;;;;;;;15.21;51.35;101040.98;1769829;80;21695;-76
2021/04/13 00:29:28;;;;;;;43.83;27.15;;;;;;;15.19;51.44;101044.34;1786018;79;21197;-76
2021/04/13 00:31:59;;;;;;;36.20;23.52;;;;;;;15.18;51.51;101045.88;1786183;80;21216;-76
2021/04/13 00:34:35;;;;;;;36.58;22.65;;;;;;;15.16;51.58;101044.69;1786900;80;22257;-74
2021/04/13 00:37:26;;;;;;;38.95;24.25;;;;;;;15.16;51.70;101043.84;1787151;79;21196;-75
2021/04/13 00:39:55;;;;;;;47.93;28.62;;;;;;;15.14;51.83;101042.69;1787519;79;21069;-76
2021/04/13 00:42:30;;;;;;;45.30;26.95;;;;;;;15.14;51.89;101042.69;1770427;80;21516;-76
2021/04/13 00:45:03;;;;;;;46.53;28.65;;;;;;;15.14;51.92;101041.33;1770130;80;21121;-75
2021/04/13 00:47:35;;;;;;;49.98;30.02;;;;;;;15.15;52.00;101044.36;1796510;78;21573;-75
2021/04/13 00:50:12;;;;;;;69.47;37.50;;;;;;;15.14;52.06;101043.19;1806109;79;21534;-75
2021/04/13 00:52:45;;;;;;;106.78;49.85;;;;;;;15.12;52.17;101042.00;1812657;79;21163;-75
2021/04/13 00:55:13;;;;;;;141.70;68.07;;;;;;;15.13;52.24;101033.42;1813962;79;21081;-76
2021/04/13 00:57:44;;;;;;;149.60;72.82;;;;;;;15.14;52.27;101037.28;1761713;80;21204;-76
2021/04/13 01:00:31;;;;;;;140.00;67.50;;;;;;;15.16;52.32;101035.24;1784451;80;21067;-76
2021/04/13 01:03:01;;;;;;;138.75;67.87;;;;;;;15.19;52.31;101037.60;1785708;79;21196;-76
2021/04/13 01:05:39;;;;;;;151.93;70.55;;;;;;;15.17;52.36;101032.90;1790965;79;21194;-75
2021/04/13 01:08:32;;;;;;;119.90;54.70;;;;;;;15.16;52.35;101036.59;1762829;80;21635;-76
2021/04/13 01:11:18;;;;;;;72.27;34.05;;;;;;;15.15;52.35;101038.13;1748415;80;21572;-75
2021/04/13 01:13:50;;;;;;;47.45;30.37;;;;;;;15.16;52.38;101039.80;1808601;79;21054;-76
2021/04/13 01:16:30;;;;;;;56.60;32.53;;;;;;;15.17;52.35;101038.30;1785394;80;21141;-76
2021/04/13 01:19:29;;;;;;;93.22;46.65;;;;;;;15.19;52.40;101039.46;1784884;80;21145;-76
2021/04/13 01:25:08;;;;;;;122.85;56.33;;;;;;;15.24;52.35;101028.98;1842183;77;22781;-76
2021/04/13 01:27:36;;;;;;;139.10;61.15;;;;;;;15.19;52.35;101030.86;1812633;79;21627;-76
2021/04/13 01:30:11;;;;;;;147.07;69.20;;;;;;;15.18;52.38;101022.44;1827722;78;21176;-76
2021/04/13 01:32:38;;;;;;;124.55;60.50;;;;;;;15.19;52.40;101026.81;1827811;78;21588;-76
2021/04/13 01:35:12;;;;;;;108.15;48.92;;;;;;;15.19;52.42;101026.81;1827788;78;21533;-76
2021/04/13 01:43:09;;;;;;;117.55;56.10;;;;;;;15.22;52.27;101028.33;1786985;78;21435;-75
2021/04/13 01:45:37;;;;;;;90.40;47.30;;;;;;;15.22;52.22;101029.16;1826195;78;21169;-75
2021/04/13 01:48:07;;;;;;;83.17;44.33;;;;;;;15.20;52.14;101032.53;1826273;78;21124;-77
2021/04/13 01:50:41;;;;;;;78.42;43.83;;;;;;;15.22;52.14;101030.52;1826210;78;21169;-76
2021/04/13 01:53:15;;;;;;;104.65;49.53;;;;;;;15.21;52.14;101036.94;1826200;78;21200;-76
2021/04/13 01:55:51;;;;;;;68.92;39.05;;;;;;;15.21;52.21;101027.97;1809550;78;21065;-76
2021/04/13 01:58:45;;;;;;;72.20;40.15;;;;;;;15.21;52.15;101024.80;1827577;78;21061;-77
2021/04/13 02:01:34;;;;;;;67.53;37.35;;;;;;;15.20;52.12;101021.73;1827714;78;21050;-77
2021/04/13 02:04:30;;;;;;;44.03;28.92;;;;;;;15.18;52.07;101023.78;1827563;78;21185;-76
2021/04/13 02:07:15;;;;;;;49.93;29.72;;;;;;;15.15;52.05;101027.33;1827453;78;21180;-76
2021/04/13 02:09:42;;;;;;;50.23;31.52;;;;;;;15.07;52.17;101029.53;1826158;78;21180;-75
2021/04/13 02:12:16;;;;;;;48.20;31.82;;;;;;;15.09;52.23;101023.48;1827589;78;21144;-77
2021/04/13 02:15:17;;;;;;;87.22;47.08;;;;;;;15.11;52.22;101024.13;1827397;78;21164;-77
2021/04/13 02:17:55;;;;;;;159.72;78.10;;;;;;;15.16;52.20;101027.66;1808771;78;21074;-78
2021/04/13 02:20:30;;;;;;;198.87;91.50;;;;;;;15.19;52.17;101025.45;1827699;78;21065;-76
2021/04/13 02:23:00;;;;;;;168.15;76.95;;;;;;;15.19;52.18;101031.37;1827994;78;21144;-77
2021/04/13 02:25:38;;;;;;;101.02;52.00;;;;;;;15.15;52.26;101026.82;1809446;78;21105;-76
2021/04/13 02:28:06;;;;;;;65.95;36.48;;;;;;;15.14;52.35;101030.54;1809153;78;21578;-76
2021/04/13 02:30:44;;;;;;;98.87;50.65;;;;;;;15.17;52.42;101031.55;1827064;78;21454;-77
2021/04/13 02:33:29;;;;;;;90.35;47.27;;;;;;;15.16;52.48;101025.80;1827785;78;21552;-76
2021/04/13 02:35:58;;;;;;;76.53;44.20;;;;;;;15.15;52.47;101018.72;1827238;78;21128;-76
2021/04/13 02:38:29;;;;;;;81.05;46.90;;;;;;;15.10;52.54;101017.06;1827070;78;20959;-76
2021/04/13 02:41:12;;;;;;;97.27;50.52;;;;;;;15.09;52.62;101019.94;1827050;78;21176;-75
2021/04/13 02:43:44;;;;;;;104.23;53.45;;;;;;;15.10;52.63;101017.06;1826952;78;21212;-74
2021/04/13 02:46:23;;;;;;;105.52;52.60;;;;;;;15.14;52.63;101016.20;1827118;78;21066;-74
2021/04/13 02:48:54;;;;;;;104.43;48.85;;;;;;;15.17;52.61;101014.49;1826922;78;21121;-76
2021/04/13 02:51:21;;;;;;;103.15;51.88;;;;;;;15.19;52.62;101016.02;1827231;78;21053;-76
2021/04/13 02:53:56;;;;;;;153.75;71.82;;;;;;;15.22;52.57;101014.33;1808748;78;21137;-75
2021/04/13 02:56:32;;;;;;;209.40;95.80;;;;;;;15.24;52.53;101015.48;1825949;78;21070;-75
2021/04/13 02:59:18;;;;;;;94.10;46.35;;;;;;;15.28;52.43;101013.28;1801869;79;21098;-76
2021/04/13 03:02:12;;;;;;;60.90;32.65;;;;;;;15.29;52.42;101012.27;1790330;80;21144;-76
2021/04/13 03:04:44;;;;;;;45.28;27.77;;;;;;;15.29;52.46;101017.66;1805606;79;21122;-76
2021/04/13 03:07:14;;;;;;;37.88;26.70;;;;;;;15.30;52.53;101008.54;1768599;80;21577;-76
2021/04/13 03:09:43;;;;;;;36.53;26.20;;;;;;;15.32;52.56;101014.62;1803263;79;21097;-77
2021/04/13 03:12:12;;;;;;;39.45;25.00;;;;;;;15.32;52.69;101022.20;1805506;79;21126;-77
2021/04/13 03:14:51;;;;;;;36.03;25.27;;;;;;;15.31;52.78;101017.83;1746765;79;21145;-76
2021/04/13 03:17:20;;;;;;;;;;;;;;;15.31;52.95;101023.74;1808933;79;21121;-77
2021/04/13 03:19:49;;;;;;;35.48;25.23;;;;;;;15.29;53.11;101021.20;1807130;78;20212;-76
2021/04/13 03:22:17;;;;;;;43.63;26.80;;;;;;;15.26;53.22;101026.97;1807687;79;21184;-76
2021/04/13 03:24:46;;;;;;;42.17;26.70;;;;;;;15.21;53.35;101015.83;1771416;79;21165;-75
2021/04/13 03:27:23;;;;;;;53.48;31.95;;;;;;;15.20;53.39;101016.34;1779355;79;21216;-76
2021/04/13 03:30:20;;;;;;;40.73;28.50;;;;;;;15.20;53.45;101010.11;1806132;79;21225;-77
2021/04/13 03:32:59;;;;;;;36.50;22.32;;;;;;;15.15;53.60;101014.67;1806636;79;21209;-76
2021/04/13 03:35:28;;;;;;;30.72;21.65;;;;;;;15.14;53.65;101025.66;1798707;79;21600;-75
2021/04/13 03:37:58;;;;;;;31.50;23.38;;;;;;;15.11;53.83;101028.18;1808165;79;21209;-77
2021/04/13 03:40:29;;;;;;;32.63;23.30;;;;;;;15.11;53.89;101026.83;1807108;79;21173;-75
2021/04/13 03:43:05;;;;;;;36.68;23.02;;;;;;;15.13;53.94;101019.42;1806993;79;21148;-76
2021/04/13 03:45:34;;;;;;;35.63;24.10;;;;;;;15.14;53.98;101020.26;1801241;79;21188;-75
2021/04/13 03:48:19;;;;;;;31.07;21.57;;;;;;;15.13;54.02;101023.98;1790026;78;21183;-77
2021/04/13 03:50:47;;;;;;;39.03;24.20;;;;;;;15.12;54.08;101020.41;1756464;79;21248;-75
2021/04/13 03:53:15;;;;;;;;;;;;;;;15.10;54.16;101017.06;1740445;80;21091;-76
2021/04/13 03:56:07;;;;;;;45.17;26.42;;;;;;;15.08;54.16;101011.01;1785820;79;20143;-76
2021/04/13 03:58:41;;;;;;;33.90;23.35;;;;;;;15.07;54.18;101013.86;1797077;79;21113;-75
2021/04/13 04:01:11;;;;;;;35.43;23.35;;;;;;;15.05;54.30;101016.74;1785479;77;21211;-74
2021/04/13 04:03:42;;;;;;;32.73;21.45;;;;;;;15.05;54.28;101015.91;1786252;79;21132;-74
2021/04/13 04:06:07;;;;;;;37.05;22.52;;;;;;;15.05;54.30;101018.09;1791361;77;21556;-74
2021/04/13 04:08:53;;;;;;;36.05;24.37;;;;;;;15.05;54.32;101024.84;1755909;80;21699;-75
2021/04/13 04:11:16;;;;;;;37.30;25.02;;;;;;;15.07;54.38;101026.84;1783579;79;21040;-76
2021/04/13 04:13:48;;;;;;;38.83;24.60;;;;;;;15.08;54.40;101025.84;1789719;77;21551;-76
2021/04/13 04:16:19;;;;;;;38.45;24.60;;;;;;;15.03;54.43;101026.01;1771422;79;21164;-76
2021/04/13 04:18:50;;;;;;;42.50;24.30;;;;;;;15.01;54.45;101026.20;1784831;79;21124;-76
2021/04/13 04:21:35;;;;;;;36.25;23.40;;;;;;;14.99;54.51;101026.89;1784908;79;21164;-75
2021/04/13 04:24:20;;;;;;;40.50;26.80;;;;;;;14.98;54.57;101027.88;1776777;77;21182;-76
2021/04/13 04:26:55;;;;;;;42.43;27.20;;;;;;;15.00;54.59;101027.22;1809146;77;21225;-77
2021/04/13 04:29:33;;;;;;;48.90;29.35;;;;;;;15.02;54.59;101035.97;1783669;79;20982;-74
2021/04/13 04:32:14;;;;;;;50.00;29.98;;;;;;;14.99;54.69;101025.55;1807132;79;20973;-76
2021/04/13 04:34:47;;;;;;;52.50;29.40;;;;;;;14.97;54.71;101018.11;1805376;79;20990;-75
2021/04/13 04:37:31;;;;;;;44.00;25.27;;;;;;;14.96;54.79;101021.83;1773391;77;20989;-75
2021/04/13 04:40:20;;;;;;;49.58;27.90;;;;;;;14.94;54.82;101019.31;1805689;79;21120;-76
2021/04/13 04:43:02;;;;;;;53.20;30.05;;;;;;;14.98;54.82;101015.74;1808342;77;21511;-75
2021/04/13 04:45:38;;;;;;;51.50;31.07;;;;;;;14.98;54.87;101020.63;1792463;79;20990;-76
2021/04/13 04:48:23;;;;;;;54.88;30.68;;;;;;;15.00;54.89;101019.13;1783509;80;21149;-75
2021/04/13 04:50:55;;;;;;;45.78;26.35;;;;;;;14.98;54.88;101008.48;1733512;80;21580;-77
2021/04/13 04:53:22;;;;;;;50.23;29.07;;;;;;;15.01;54.82;101015.41;1791720;79;21119;-76
2021/04/13 04:55:55;;;;;;;53.15;29.90;;;;;;;15.01;54.85;101014.05;1796083;79;20981;-75
2021/04/13 04:58:23;;;;;;;62.30;34.23;;;;;;;15.02;54.87;101010.84;1783440;80;21106;-74
2021/04/13 05:00:50;;;;;;;;;;;;;;;15.03;54.84;101009.31;1802411;77;21155;-75
2021/04/13 05:03:18;;;;;;;58.45;31.23;;;;;;;15.04;54.88;101007.48;1819976;77;20250;-75
2021/04/13 05:05:48;;;;;;;60.88;32.10;;;;;;;15.04;54.84;101013.72;1799227;77;21128;-77
2021/04/13 05:08:19;;;;;;;60.55;31.97;;;;;;;15.03;54.85;101013.36;1793796;78;21144;-78
2021/04/13 05:10:47;;;;;;;55.30;31.40;;;;;;;15.04;54.85;101008.84;1789578;79;21596;-75
2021/04/13 05:13:16;;;;;;;57.78;29.72;;;;;;;15.06;54.84;101004.09;1784858;77;21174;-76
2021/04/13 05:15:43;;;;;;;53.60;29.20;;;;;;;15.07;54.79;101008.47;1754620;80;21112;-75
2021/04/13 05:18:13;;;;;;;45.70;28.42;;;;;;;15.09;54.78;101005.94;1788589;77;21670;-74
2021/04/13 05:20:40;;;;;;;46.48;26.17;;;;;;;15.09;54.71;101001.89;1795712;77;21093;-76
2021/04/13 05:23:08;;;;;;;39.18;26.97;;;;;;;15.10;54.71;100998.69;1792250;77;21119;-75
2021/04/13 05:25:35;;;;;;;46.95;29.02;;;;;;;15.11;54.70;100999.84;1775762;79;21136;-76
2021/04/13 05:28:03;;;;;;;41.20;26.82;;;;;;;15.14;54.73;101007.61;1800770;77;21121;-75
2021/04/13 05:30:30;;;;;;;53.87;29.52;;;;;;;15.16;54.69;101000.67;1792124;78;21120;-76
2021/04/13 05:32:57;;;;;;;49.53;28.87;;;;;;;15.18;54.63;100997.31;1797343;79;20982;-77
2021/04/13 05:35:25;;;;;;;48.08;28.52;;;;;;;15.21;54.58;100995.59;1796342;77;21619;-77
2021/04/13 05:37:52;;;;;;;49.65;29.57;;;;;;;15.20;54.55;100993.41;1799614;79;21185;-75
2021/04/13 05:40:25;;;;;;;51.85;30.08;;;;;;;15.19;54.56;100993.08;1785730;80;21105;-76
2021/04/13 05:42:55;;;;;;;55.23;31.65;;;;;;;15.19;54.64;100989.54;1771860;79;21112;-77
2021/04/13 05:45:27;;;;;;;53.13;29.85;;;;;;;15.25;54.61;100987.98;1794415;79;21151;-77
2021/04/13 05:50:35;;;;;;;50.73;31.05;;;;;;;15.30;54.57;100986.95;1835258;77;22730;-77
2021/04/13 05:53:03;;;;;;;54.67;30.43;;;;;;;15.28;54.52;100987.65;1807505;78;21144;-76
2021/04/13 05:55:32;;;;;;;49.80;29.55;;;;;;;15.32;54.46;100993.03;1790759;77;21604;-75
2021/04/13 05:58:10;;;;;;;45.95;27.62;;;;;;;15.34;54.41;100995.03;1819451;77;21159;-76
2021/04/13 06:00:37;;;;;;;42.30;27.20;;;;;;;15.36;54.38;100997.06;1820689;77;21039;-75
2021/04/13 06:03:05;;;;;;;47.20;27.67;;;;;;;15.33;54.35;100996.89;1818944;77;21667;-75
2021/04/13 06:05:32;;;;;;;40.28;25.45;;;;;;;15.32;54.36;100997.08;1784739;78;21101;-76
2021/04/13 06:07:59;;;;;;;;;;;;;;;15.30;54.35;101001.80;1841999;77;21137;-76
2021/04/13 06:10:27;;;;;;;46.02;26.90;;;;;;;15.30;54.35;100997.74;1833140;77;20184;-76
2021/04/13 06:12:58;;;;;;;56.63;40.95;;;;;;;15.31;54.35;100997.59;1841778;77;21113;-78
2021/04/13 06:15:28;;;;;;;52.48;35.25;;;;;;;15.31;54.36;101004.85;1806638;77;21320;-76
2021/04/13 06:18:01;;;;;;;53.58;31.50;;;;;;;15.30;54.36;100999.09;1810166;77;20939;-77
2021/04/13 06:20:29;;;;;;;46.00;29.20;;;;;;;15.30;54.41;101005.33;1812759;77;21478;-77
2021/04/13 06:23:00;;;;;;;43.38;26.48;;;;;;;15.28;54.41;101006.03;1807177;77;21209;-76
2021/04/13 06:25:31;;;;;;;37.85;24.67;;;;;;;15.22;54.40;101002.18;1800935;78;21703;-74
2021/04/13 06:27:59;;;;;;;46.02;27.27;;;;;;;15.20;54.44;101005.55;1804411;77;21115;-76
2021/04/13 06:30:27;;;;;;;48.50;29.02;;;;;;;15.22;54.41;101012.14;1812458;78;21102;-76
2021/04/13 06:33:01;;;;;;;51.98;32.55;;;;;;;15.24;54.37;101007.39;1806879;78;21009;-75
2021/04/13 06:35:27;;;;;;;50.67;31.75;;;;;;;15.27;54.33;101008.91;1807373;77;21125;-77
2021/04/13 06:37:58;;;;;;;44.03;29.32;;;;;;;15.30;54.25;101011.23;1811328;78;21129;-76
2021/04/13 06:40:49;;;;;;;38.98;26.52;;;;;;;15.31;54.13;101006.20;1805658;77;21102;-75
2021/04/13 06:43:46;;;;;;;43.78;29.20;;;;;;;15.32;54.06;101011.92;1855501;76;21011;-77
2021/04/13 06:46:35;;;;;;;46.42;26.40;;;;;;;15.30;54.07;101005.84;1814797;77;21152;-76
2021/04/13 06:49:30;;;;;;;42.33;26.70;;;;;;;15.29;54.03;101015.80;1822396;77;21146;-78
2021/04/13 06:52:39;;;;;;;44.33;26.97;;;;;;;15.30;54.08;101022.03;1794900;77;21125;-76
2021/04/13 06:55:44;;;;;;;41.58;25.77;;;;;;;15.30;54.07;101018.83;1820169;77;20974;-75
2021/04/13 06:59:02;;;;;;;44.63;26.85;;;;;;;15.25;54.15;101021.21;1821464;77;21101;-76
2021/04/13 07:02:00;;;;;;;36.30;22.80;;;;;;;15.25;54.26;101023.08;1813871;77;21138;-75
2021/04/13 07:04:36;;;;;;;51.45;28.70;;;;;;;15.27;54.25;101022.41;1815247;77;21172;-77
2021/04/13 07:07:11;;;;;;;50.10;31.12;;;;;;;15.29;54.26;101020.36;1815818;78;21150;-77
2021/04/13 07:09:47;;;;;;;41.00;25.20;;;;;;;15.31;54.22;101014.30;1815861;77;21639;-76
2021/04/13 07:12:37;;;;;;;35.95;22.22;;;;;;;15.35;54.11;101019.17;1826410;78;20986;-77
2021/04/13 07:15:16;;;;;;;38.70;22.17;;;;;;;15.39;54.01;101023.69;1827164;78;21112;-76
2021/04/13 07:17:57;;;;;;;36.63;22.27;;;;;;;15.41;54.01;101023.02;1819802;78;20956;-75
2021/04/13 07:20:36;;;;;;;37.45;22.95;;;;;;;15.44;53.92;101020.81;1819398;78;20987;-76
2021/04/13 07:23:17;;;;;;;44.30;23.30;;;;;;;15.48;53.88;101025.33;1817934;77;21114;-75
2021/04/13 07:25:50;;;;;;;33.67;21.80;;;;;;;15.50;53.81;101019.26;1817738;78;21109;-77
2021/04/13 07:28:38;;;;;;;37.80;22.73;;;;;;;15.52;53.75;101022.61;1837973;77;21109;-76
2021/04/13 07:31:14;;;;;;;36.40;21.68;;;;;;;15.51;53.71;101029.03;1812857;77;21103;-76
2021/04/13 07:33:43;;;;;;;36.93;22.45;;;;;;;15.51;53.74;101023.63;1811723;78;21002;-79
2021/04/13 07:36:25;;;;;;;37.40;23.35;;;;;;;15.53;53.76;101026.98;1823965;77;21216;-78
2021/04/13 07:38:55;;;;;;;40.50;23.22;;;;;;;15.64;53.51;101026.63;1811737;77;21225;-77
2021/04/13 07:41:40;;;;;;;39.78;23.83;;;;;;;15.59;53.54;101024.95;1815676;77;21216;-78
2021/04/13 07:44:27;;;;;;;36.98;22.52;;;;;;;15.59;53.51;101030.34;1818163;78;20985;-78
2021/04/13 07:47:12;;;;;;;34.03;22.82;;;;;;;15.60;53.45;101026.63;1817097;77;21240;-77
2021/04/13 07:49:51;;;;;;;47.40;30.37;;;;;;;15.65;53.39;101027.47;1812019;77;21194;-75
2021/04/13 07:52:57;;;;;;;45.58;30.62;;;;;;;15.65;53.39;101023.42;1809969;77;21196;-77
2021/04/13 07:55:37;;;;;;;42.45;25.80;;;;;;;15.65;53.38;101022.91;1818315;77;23213;-78
2021/04/13 07:58:20;;;;;;;38.23;23.15;;;;;;;15.68;53.28;101023.91;1816611;78;21589;-76
2021/04/13 08:00:53;;;;;;;40.28;23.20;;;;;;;15.69;53.16;101022.05;1818169;77;20987;-77
2021/04/13 08:03:31;;;;;;;41.68;24.25;;;;;;;15.69;53.14;101020.19;1796514;78;21111;-75
2021/04/13 08:06:02;;;;;;;64.22;34.83;;;;;;;15.72;53.09;101017.66;1809407;77;21478;-75
2021/04/13 08:08:41;;;;;;;53.87;31.50;;;;;;;15.72;53.06;101017.66;1837086;75;21609;-74
2021/04/13 08:11:13;;;;;;;67.50;33.55;;;;;;;15.73;52.91;101018.81;1777671;77;21373;-74
2021/04/13 08:13:48;;;;;;;67.70;35.68;;;;;;;15.68;52.94;101012.27;1805027;78;21005;-73
2021/04/13 08:16:38;;;;;;;56.28;30.85;;;;;;;15.71;52.89;101022.70;1812892;77;21129;-73
2021/04/13 08:19:31;;;;;;;37.60;21.23;;;;;;;15.75;52.85;101018.62;1805759;78;21613;-75
2021/04/13 08:22:13;;;;;;;41.05;24.23;;;;;;;15.79;52.76;101019.13;1807356;78;21136;-76
2021/04/13 08:24:52;;;;;;;40.33;23.45;;;;;;;15.70;52.83;101016.46;1784820;77;21177;-72
2021/04/13 08:27:34;;;;;;;35.50;22.10;;;;;;;15.66;52.96;101017.83;1808914;77;21383;-76
2021/04/13 08:30:32;;;;;;;33.50;20.72;;;;;;;15.63;53.01;101016.83;1813997;77;21134;-78
2021/04/13 08:33:32;;;;;;;37.45;21.55;;;;;;;15.62;53.10;101010.23;1805531;77;21100;-76
2021/04/13 08:36:15;;;;;;;42.83;25.97;;;;;;;15.62;53.12;101004.83;1803040;77;21177;-75
2021/04/13 08:39:05;;;;;;;43.80;29.32;;;;;;;15.64;53.12;101014.48;1800048;78;21137;-74
2021/04/13 08:41:48;;;;;;;54.60;36.00;;;;;;;15.64;53.15;101010.43;1807660;77;20975;-74
2021/04/13 08:44:46;;;;;;;46.25;29.82;;;;;;;15.69;53.12;101011.25;1808618;78;21077;-73
2021/04/13 08:47:24;;;;;;;46.30;27.73;;;;;;;15.68;53.06;101007.71;1789155;78;21149;-74
2021/04/13 08:49:57;;;;;;;44.45;26.87;;;;;;;15.68;53.02;101009.58;1804814;78;21143;-74
2021/04/13 08:52:44;;;;;;;41.92;25.68;;;;;;;15.67;53.04;101004.69;1797827;77;21493;-75
2021/04/13 08:55:22;;;;;;;43.25;24.45;;;;;;;15.70;52.98;101004.82;1780866;77;21145;-73
2021/04/13 08:58:19;;;;;;;38.10;22.10;;;;;;;15.76;52.87;101001.91;1804916;77;21044;-73
2021/04/13 09:00:50;;;;;;;42.45;25.23;;;;;;;15.79;52.72;101002.91;1819053;76;21073;-75
2021/04/13 09:03:21;;;;;;;43.87;26.23;;;;;;;15.82;52.66;100997.16;1818991;77;21123;-74
2021/04/13 09:06:09;;;;;;;43.55;27.90;;;;;;;15.84;52.55;100992.41;1816923;77;21216;-74
2021/04/13 09:08:56;;;;;;;35.83;21.97;;;;;;;15.82;52.51;100990.41;1817135;77;21096;-76
2021/04/13 09:11:32;;;;;;;41.77;22.90;;;;;;;15.85;52.36;100988.67;1818076;77;21148;-74
2021/04/13 09:14:08;;;;;;;37.67;23.47;;;;;;;15.89;52.25;100988.14;1810453;77;21111;-74
2021/04/13 09:16:43;;;;;;;46.00;25.48;;;;;;;15.90;52.21;100989.01;1816162;77;21160;-73
2021/04/13 09:19:36;;;;;;;36.70;22.60;;;;;;;15.92;52.12;100986.95;1774490;77;21650;-74
2021/04/13 09:22:23;;;;;;;40.48;24.43;;;;;;;15.96;52.01;100992.33;1825022;78;21115;-77
2021/04/13 09:25:33;;;;;;;37.67;22.93;;;;;;;15.95;51.99;100987.95;1818686;78;21125;-76
2021/04/13 09:28:08;;;;;;;36.25;22.30;;;;;;;15.90;52.06;100987.14;1828198;78;21014;-75
2021/04/13 09:30:47;;;;;;;40.63;24.25;;;;;;;15.91;52.15;100998.78;1815492;78;21217;-74
2021/04/13 09:33:23;;;;;;;37.80;24.55;;;;;;;15.87;52.22;100992.05;1838911;75;21133;-74
2021/04/13 09:36:11;;;;;;;41.83;25.32;;;;;;;15.86;52.32;100990.38;1843551;76;21109;-74
2021/04/13 09:39:15;;;;;;;41.88;26.45;;;;;;;15.90;52.28;100989.01;1831434;77;22767;-73
2021/04/13 09:42:07;;;;;;;35.83;22.67;;;;;;;15.86;52.27;100987.68;1789729;78;21190;-74
2021/04/13 09:45:02;;;;;;;37.93;21.45;;;;;;;15.85;52.28;100990.03;1831439;76;21143;-74
2021/04/13 09:47:53;;;;;;;44.03;24.37;;;;;;;15.87;52.27;100990.70;1832835;76;21117;-73
2021/04/13 09:50:56;;;;;;;45.95;24.00;;;;;;;15.89;52.30;100992.70;1837428;76;21108;-75
2021/04/13 09:53:57;;;;;;;35.15;21.87;;;;;;;15.84;52.35;100990.54;1838925;76;21224;-75
2021/04/13 09:56:48;;;;;;;35.35;22.25;;;;;;;15.84;52.29;100988.36;1830890;76;21197;-73
2021/04/13 09:59:33;;;;;;;38.58;20.95;;;;;;;15.83;52.33;100985.33;1811154;78;21535;-76
2021/04/13 10:02:22;;;;;;;36.53;22.42;;;;;;;15.83;52.30;100985.33;1792532;78;21515;-74
2021/04/13 10:04:58;;;;;;;38.95;22.58;;;;;;;15.84;52.35;100982.95;1797180;78;21289;-74
2021/04/13 10:07:54;;;;;;;38.23;21.62;;;;;;;15.88;52.32;100980.22;1815103;78;21821;-75
2021/04/13 10:10:42;;;;;;;45.23;23.65;;;;;;;15.91;52.29;100973.95;1819492;78;21182;-76
2021/04/13 10:13:32;;;;;;;35.52;22.90;;;;;;;15.93;52.23;100973.25;1793139;78;21224;-77
2021/04/13 10:16:10;;;;;;;31.62;20.25;;;;;;;15.98;52.20;100975.41;1806299;78;21265;-75
2021/04/13 10:19:03;;;;;;;32.85;21.75;;;;;;;15.97;52.15;100969.69;1790109;78;21200;-76
2021/04/13 10:22:18;;;;;;;37.98;24.05;;;;;;;15.97;52.22;100973.73;1819971;78;21264;-75
2021/04/13 10:25:37;;;;;;;37.53;23.87;;;;;;;15.98;52.29;100976.25;1816019;78;21170;-77
2021/04/13 10:28:19;;;;;;;46.42;28.85;;;;;;;16.03;52.24;100981.11;1809193;78;21227;-76
2021/04/13 10:31:27;;;;;;;35.85;23.95;;;;;;;16.03;52.21;100975.70;1773864;78;21608;-76
2021/04/13 10:34:31;;;;;;;31.23;20.15;;;;;;;16.02;52.22;100979.44;1806850;78;21126;-74
2021/04/13 10:37:22;;;;;;;36.35;23.50;;;;;;;16.00;52.21;100979.30;1801823;77;21342;-76
2021/04/13 10:40:27;;;;;;;32.48;21.55;;;;;;;15.98;52.24;100980.81;1809885;77;21642;-76
2021/04/13 10:43:17;;;;;;;44.20;26.00;;;;;;;16.00;52.25;100981.49;1807203;77;21004;-77
2021/04/13 10:46:15;;;;;;;41.50;26.27;;;;;;;15.97;52.28;100979.14;1830703;77;21150;-77
2021/04/13 10:49:08;;;;;;;40.67;25.50;;;;;;;15.94;52.29;100977.66;1813893;77;20979;-76
2021/04/13 10:52:02;;;;;;;40.50;25.30;;;;;;;15.94;52.27;100973.61;1788097;77;21117;-75
2021/04/13 10:55:03;;;;;;;49.27;27.98;;;;;;;15.92;52.27;100974.28;1816202;77;21189;-76
2021/04/13 10:57:50;;;;;;;40.17;25.72;;;;;;;15.91;52.41;100978.52;1828473;78;21166;-76
2021/04/13 11:00:42;;;;;;;37.75;23.00;;;;;;;15.88;52.41;100977.52;1811735;78;21132;-77
2021/04/13 11:03:33;;;;;;;42.95;27.73;;;;;;;15.85;52.46;100980.09;1782636;78;21104;-76
2021/04/13 11:06:56;;;;;;;40.45;25.30;;;;;;;15.80;52.54;100977.58;1810772;78;21068;-77
2021/04/13 11:10:24;;;;;;;39.92;23.05;;;;;;;15.74;52.65;100972.39;1814968;78;21116;-76
2021/04/13 11:13:09;;;;;;;40.15;24.47;;;;;;;15.71;52.86;100972.73;1813253;78;21030;-75
2021/04/13 11:16:10;;;;;;;47.65;29.75;;;;;;;15.73;52.86;100976.11;1812855;78;21204;-77
2021/04/13 11:19:00;;;;;;;43.25;25.02;;;;;;;15.69;52.94;100979.67;1808593;78;21097;-74
2021/04/13 11:22:26;;;;;;;41.25;24.10;;;;;;;15.71;52.95;100980.36;1816415;78;21184;-76
2021/04/13 11:25:10;;;;;;;34.33;21.95;;;;;;;15.75;52.93;100974.58;1819529;78;21216;-78
2021/04/13 11:28:12;;;;;;;36.65;24.30;;;;;;;15.80;52.84;100973.01;1808836;78;21186;-76
2021/04/13 11:31:20;;;;;;;37.83;23.95;;;;;;;15.87;52.75;100975.84;1830861;76;21182;-76
2021/04/13 11:34:14;;;;;;;42.75;27.58;;;;;;;15.91;52.67;100975.82;1814532;78;21536;-77
2021/04/13 11:37:22;;;;;;;41.20;26.05;;;;;;;15.94;52.53;100976.79;1814959;78;21005;-75
2021/04/13 11:40:40;;;;;;;42.03;25.62;;;;;;;15.93;52.48;100977.81;1812888;78;21208;-80
2021/04/13 11:43:13;;;;;;;50.70;27.95;;;;;;;15.92;52.47;100970.74;1834966;76;21196;-77
2021/04/13 11:46:07;;;;;;;38.05;26.60;;;;;;;15.95;52.48;100975.28;1834228;76;21369;-73
2021/04/13 11:49:03;;;;;;;48.65;27.82;;;;;;;15.99;52.43;100971.71;1810801;77;21198;-78
2021/04/13 11:51:43;;;;;;;41.08;25.65;;;;;;;16.05;52.28;100966.09;1786264;78;21187;-76
2021/04/13 11:54:52;;;;;;;36.53;23.57;;;;;;;16.09;52.17;100964.70;1801286;78;21125;-76
2021/04/13 11:57:35;;;;;;;35.73;20.90;;;;;;;16.12;52.07;100967.02;1818318;78;21140;-79
2021/04/13 12:00:20;;;;;;;31.48;23.20;;;;;;;16.13;52.05;100968.73;1803222;78;21140;-77
2021/04/13 12:03:19;;;;;;;34.63;22.98;;;;;;;16.13;52.01;100964.16;1826858;77;20975;-77
2021/04/13 12:05:58;;;;;;;34.92;22.95;;;;;;;16.11;52.01;100954.03;1818518;77;21109;-75
2021/04/13 12:08:41;;;;;;;33.70;22.93;;;;;;;16.13;51.97;100958.75;1821938;77;21129;-75
2021/04/13 12:11:38;;;;;;;36.98;25.10;;;;;;;16.16;51.90;100952.13;1823813;77;21129;-76
2021/04/13 12:14:37;;;;;;;38.08;22.22;;;;;;;16.16;51.88;100948.91;1810624;77;21107;-75
2021/04/13 12:17:11;;;;;;;36.17;21.95;;;;;;;16.16;51.85;100957.02;1799194;77;21097;-76
2021/04/13 12:20:01;;;;;;;36.70;22.52;;;;;;;16.17;51.82;100950.61;1811905;78;21160;-77
2021/04/13 12:22:35;;;;;;;38.10;25.40;;;;;;;16.21;51.77;100951.06;1809889;78;21115;-74